Time;durP1;ratioP1;P1;durP2;ratioP2;P2;SDS_P1;SDS_P2;PMS_P1;PMS_P2;Temp;Humidity;BMP_temperature;BMP_pressure;BME280_temperature;BME280_humidity;BME280_pressure;Samples;Min_cycle;Max_cycle;Signal;HPM_P1;HPM_P2
2023/12/28 00:00:22;;;;;;;6.65;4.10;;;9.30;99.90;;;;;;7375901;19;20014;-67
2023/12/28 00:02:48;;;;;;;7.38;4.20;;;9.40;99.90;;;;;;7375103;19;20015;-67
2023/12/28 00:05:14;;;;;;;6.88;4.40;;;9.40;99.90;;;;;;7370205;19;20019;-67
2023/12/28 00:07:41;;;;;;;6.63;4.07;;;9.40;99.90;;;;;;7372999;19;20017;-66
2023/12/28 00:10:08;;;;;;;6.03;4.00;;;9.50;99.90;;;;;;7371452;19;20029;-67
2023/12/28 00:12:34;;;;;;;7.78;4.28;;;9.50;99.90;;;;;;7375698;19;20027;-67
2023/12/28 00:15:01;;;;;;;6.38;3.90;;;9.60;99.90;;;;;;7374994;19;20030;-73
2023/12/28 00:17:27;;;;;;;7.28;4.50;;;9.60;99.90;;;;;;7379074;19;20077;-73
2023/12/28 00:19:54;;;;;;;6.25;3.95;;;9.50;99.90;;;;;;7376297;19;20018;-73
2023/12/28 00:22:20;;;;;;;5.75;4.03;;;9.60;99.90;;;;;;7376954;19;20064;-73
2023/12/28 00:24:46;;;;;;;7.15;4.60;;;9.70;99.90;;;;;;7375418;19;20098;-66
2023/12/28 00:27:13;;;;;;;5.70;4.15;;;9.70;99.90;;;;;;7371550;19;20086;-66
2023/12/28 00:29:41;;;;;;;6.97;4.35;;;9.70;99.90;;;;;;7374755;19;20102;-73
2023/12/28 00:32:09;;;;;;;5.80;4.15;;;9.70;99.90;;;;;;7371524;19;20022;-66
2023/12/28 00:34:36;;;;;;;6.28;4.22;;;9.70;99.90;;;;;;7375180;19;20014;-67
2023/12/28 00:37:02;;;;;;;5.45;4.03;;;9.70;99.90;;;;;;7373418;19;20518;-66
2023/12/28 00:39:29;;;;;;;8.70;4.53;;;9.70;99.90;;;;;;7374104;19;20018;-67
2023/12/28 00:41:58;;;;;;;6.53;4.38;;;9.70;99.90;;;;;;7374496;19;20022;-67
2023/12/28 00:44:24;;;;;;;10.80;4.68;;;9.70;99.90;;;;;;7374832;19;20047;-67
2023/12/28 00:46:50;;;;;;;8.40;4.88;;;9.60;99.90;;;;;;7376849;19;20428;-72
2023/12/28 00:49:16;;;;;;;8.02;4.60;;;9.60;99.90;;;;;;7374909;19;20018;-73
2023/12/28 00:51:42;;;;;;;7.40;4.38;;;9.60;99.90;;;;;;7376958;19;20386;-73
2023/12/28 00:54:09;;;;;;;6.45;3.90;;;9.60;99.90;;;;;;7372111;19;20015;-73
2023/12/28 00:56:35;;;;;;;9.73;4.72;;;9.60;99.90;;;;;;7374811;19;20030;-73
2023/12/28 00:59:02;;;;;;;7.03;3.97;;;9.60;99.90;;;;;;7370265;19;20014;-66
2023/12/28 01:01:30;;;;;;;6.32;3.95;;;9.60;99.90;;;;;;7369795;19;20054;-67
2023/12/28 01:03:57;;;;;;;7.05;4.45;;;9.70;99.90;;;;;;7369110;19;20019;-66
2023/12/28 01:06:28;;;;;;;8.65;4.55;;;9.70;99.90;;;;;;7370397;19;20022;-66
2023/12/28 01:08:58;;;;;;;9.50;4.57;;;9.70;99.90;;;;;;7364483;19;20018;-73
2023/12/28 01:11:24;;;;;;;9.10;4.03;;;9.70;99.90;;;;;;7373307;19;20014;-73
2023/12/28 01:13:52;;;;;;;6.53;4.28;;;9.60;99.90;;;;;;7373029;19;20052;-73
2023/12/28 01:16:18;;;;;;;11.50;4.68;;;9.60;99.90;;;;;;7369219;19;20019;-67
2023/12/28 01:18:44;;;;;;;8.73;4.80;;;9.50;99.90;;;;;;7373323;19;20038;-73
2023/12/28 01:21:12;;;;;;;7.40;4.13;;;9.50;99.90;;;;;;7372402;19;20106;-73
2023/12/28 01:23:38;;;;;;;8.82;4.90;;;9.50;99.90;;;;;;7374464;19;20054;-73
2023/12/28 01:26:04;;;;;;;7.38;4.60;;;9.40;99.90;;;;;;7373646;19;20741;-73
2023/12/28 01:28:31;;;;;;;8.57;4.75;;;9.30;99.90;;;;;;7369582;19;20019;-73
2023/12/28 01:30:58;;;;;;;8.25;5.05;;;9.30;99.90;;;;;;7370893;19;20523;-73
2023/12/28 01:33:24;;;;;;;12.07;5.07;;;9.20;99.90;;;;;;7369202;19;20022;-66
2023/12/28 01:35:50;;;;;;;12.90;4.78;;;9.20;99.90;;;;;;7372933;19;20026;-66
2023/12/28 01:38:17;;;;;;;11.40;6.57;;;9.20;99.90;;;;;;7370158;19;20022;-73
2023/12/28 01:40:46;;;;;;;12.13;5.25;;;9.20;99.90;;;;;;7376207;19;20018;-67
2023/12/28 01:43:12;;;;;;;8.63;5.15;;;9.20;99.90;;;;;;7368666;19;20031;-67
2023/12/28 01:45:39;;;;;;;8.07;4.82;;;9.20;99.90;;;;;;7373630;19;21075;-66
2023/12/28 01:48:05;;;;;;;10.50;5.28;;;9.30;99.90;;;;;;7370086;19;20022;-66
2023/12/28 01:50:32;;;;;;;10.68;5.13;;;9.20;99.90;;;;;;7371520;19;20019;-66
2023/12/28 01:53:00;;;;;;;10.38;4.60;;;9.20;99.90;;;;;;7372925;19;20018;-68
2023/12/28 01:55:28;;;;;;;9.40;4.65;;;9.30;99.90;;;;;;7370840;19;20018;-67
2023/12/28 01:57:55;;;;;;;11.20;4.95;;;9.30;99.90;;;;;;7370341;19;20473;-66
2023/12/28 02:00:23;;;;;;;10.45;4.68;;;9.30;99.90;;;;;;7367938;19;20018;-67
2023/12/28 02:02:51;;;;;;;13.65;5.05;;;9.40;99.90;;;;;;7366854;19;20058;-66
2023/12/28 02:05:18;;;;;;;11.35;4.63;;;9.40;99.90;;;;;;7370105;19;20744;-67
2023/12/28 02:07:45;;;;;;;8.60;4.43;;;9.40;99.90;;;;;;7369910;19;20287;-66
2023/12/28 02:10:11;;;;;;;9.55;4.18;;;9.40;99.90;;;;;;7366560;19;20019;-67
2023/12/28 02:12:38;;;;;;;11.15;4.60;;;9.40;99.90;;;;;;7369325;19;20058;-66
2023/12/28 02:15:05;;;;;;;7.93;4.10;;;9.50;99.90;;;;;;7366342;19;20034;-66
2023/12/28 02:18:05;;;;;;;12.32;4.35;;;9.50;99.90;;;;;;7365399;19;20650;-66
2023/12/28 02:20:32;;;;;;;10.23;4.00;;;9.60;99.90;;;;;;7375635;19;20019;-66
2023/12/28 02:22:59;;;;;;;12.10;4.03;;;9.60;99.90;;;;;;7374959;19;20378;-66
2023/12/28 02:25:26;;;;;;;12.52;3.72;;;9.70;99.90;;;;;;7373939;19;20018;-67
2023/12/28 02:27:53;;;;;;;10.88;3.83;;;9.80;99.90;;;;;;7377689;19;20082;-66
2023/12/28 02:30:22;;;;;;;10.85;3.83;;;9.80;99.90;;;;;;7369772;19;20010;-67
2023/12/28 02:33:45;;;;;;;8.32;3.58;;;9.70;99.90;;;;;;7372876;19;20022;-66
2023/12/28 02:36:15;;;;;;;8.45;3.92;;;9.80;99.90;;;;;;7367929;19;20023;-66
2023/12/28 02:38:44;;;;;;;13.82;4.15;;;9.80;99.90;;;;;;7370255;19;20018;-66
2023/12/28 02:41:14;;;;;;;9.90;3.63;;;9.80;99.90;;;;;;7369247;19;20015;-66
2023/12/28 02:44:00;;;;;;;14.77;4.18;;;9.90;99.90;;;;;;7373625;19;20019;-67
2023/12/28 02:46:27;;;;;;;7.57;3.55;;;9.90;99.90;;;;;;7375684;19;20089;-66
2023/12/28 02:48:57;;;;;;;13.40;4.13;;;9.90;99.90;;;;;;7372751;19;20019;-66
2023/12/28 02:51:23;;;;;;;11.50;3.80;;;10.00;99.90;;;;;;7371624;19;20138;-66
2023/12/28 02:53:49;;;;;;;13.32;4.15;;;10.00;99.90;;;;;;7372163;19;20026;-66
2023/12/28 02:56:16;;;;;;;13.38;4.03;;;10.10;99.90;;;;;;7375766;19;20022;-66
2023/12/28 02:58:42;;;;;;;13.48;4.72;;;10.10;99.90;;;;;;7376398;19;20014;-66
2023/12/28 03:01:09;;;;;;;8.57;3.67;;;10.10;99.90;;;;;;7373355;19;20101;-66
2023/12/28 03:03:35;;;;;;;13.77;3.78;;;10.10;99.90;;;;;;7372897;19;20014;-67
2023/12/28 03:06:01;;;;;;;13.65;4.45;;;10.10;99.90;;;;;;7373161;19;20589;-73
2023/12/28 03:08:27;;;;;;;10.15;3.70;;;10.10;99.90;;;;;;7373785;19;20137;-73
2023/12/28 03:10:55;;;;;;;11.32;4.00;;;10.00;99.90;;;;;;7367227;19;20025;-72
2023/12/28 03:13:21;;;;;;;12.55;3.90;;;10.00;99.90;;;;;;7368255;19;20018;-72
2023/12/28 03:15:48;;;;;;;8.20;3.97;;;9.90;99.90;;;;;;7378313;19;20060;-73
2023/12/28 03:18:14;;;;;;;8.38;4.20;;;9.90;99.90;;;;;;7376574;19;20014;-66
2023/12/28 03:20:40;;;;;;;10.43;4.00;;;9.90;99.90;;;;;;7378893;19;20018;-66
2023/12/28 03:23:27;;;;;;;10.30;4.32;;;10.00;99.90;;;;;;7376332;19;20426;-66
2023/12/28 03:25:53;;;;;;;11.00;4.50;;;10.00;99.90;;;;;;7375609;19;20033;-67
2023/12/28 03:28:20;;;;;;;10.27;3.95;;;10.10;99.90;;;;;;7372811;19;20628;-66
2023/12/28 03:30:47;;;;;;;13.73;4.47;;;10.10;99.90;;;;;;7373138;19;20014;-72
2023/12/28 03:33:13;;;;;;;10.40;3.90;;;10.10;99.90;;;;;;7372545;19;20355;-66
2023/12/28 03:35:39;;;;;;;7.90;4.43;;;10.10;99.90;;;;;;7374236;19;20496;-71
2023/12/28 03:38:07;;;;;;;8.32;3.92;;;10.10;99.90;;;;;;7375483;19;20487;-73
2023/12/28 03:40:33;;;;;;;11.30;4.05;;;10.20;99.90;;;;;;7374141;19;20019;-67
2023/12/28 03:42:59;;;;;;;8.00;3.75;;;10.20;99.90;;;;;;7375290;19;20023;-66
2023/12/28 03:45:25;;;;;;;8.15;3.20;;;10.30;99.90;;;;;;7373892;19;20049;-66
2023/12/28 03:47:52;;;;;;;8.30;3.38;;;10.30;99.90;;;;;;7375302;19;20027;-66
2023/12/28 03:50:38;;;;;;;17.27;3.95;;;10.30;99.90;;;;;;7372025;19;20031;-66
2023/12/28 03:53:04;;;;;;;8.85;3.55;;;10.30;99.90;;;;;;7375656;19;20023;-66
2023/12/28 03:55:30;;;;;;;8.88;3.75;;;10.30;99.90;;;;;;7370750;19;20725;-66
2023/12/28 03:57:58;;;;;;;12.40;3.22;;;10.40;99.90;;;;;;7375737;19;20022;-66
2023/12/28 04:00:25;;;;;;;10.15;3.15;;;10.40;99.90;;;;;;7373895;19;20046;-66
2023/12/28 04:02:51;;;;;;;8.48;3.83;;;10.40;99.90;;;;;;7374342;19;20096;-66
2023/12/28 04:05:18;;;;;;;13.10;3.05;;;10.40;99.90;;;;;;7374042;19;20034;-66
2023/12/28 04:07:44;;;;;;;9.90;3.58;;;10.30;99.90;;;;;;7376908;19;20057;-66
2023/12/28 04:10:10;;;;;;;10.18;3.95;;;10.40;99.90;;;;;;7375010;19;20026;-72
2023/12/28 04:12:38;;;;;;;9.52;3.40;;;10.30;99.90;;;;;;7373224;19;20057;-66
2023/12/28 04:15:04;;;;;;;10.10;3.72;;;10.40;99.90;;;;;;7372088;19;20052;-66
2023/12/28 04:17:31;;;;;;;11.23;3.30;;;10.30;99.90;;;;;;7371453;19;20034;-66
2023/12/28 04:19:57;;;;;;;11.68;3.30;;;10.40;99.90;;;;;;7375608;19;20511;-66
2023/12/28 04:22:23;;;;;;;11.80;3.13;;;10.40;99.90;;;;;;7373801;19;20088;-66
2023/12/28 04:24:50;;;;;;;9.55;2.85;;;10.30;99.90;;;;;;7372963;19;20101;-66
2023/12/28 04:27:16;;;;;;;14.35;4.30;;;10.40;99.90;;;;;;7373716;19;20741;-72
2023/12/28 04:29:42;;;;;;;8.35;3.38;;;10.40;99.90;;;;;;7373231;19;20077;-66
2023/12/28 04:32:09;;;;;;;9.05;2.95;;;10.40;99.90;;;;;;7373484;19;20466;-66
2023/12/28 04:34:36;;;;;;;12.18;2.80;;;10.40;99.90;;;;;;7374499;19;20018;-72
2023/12/28 04:37:02;;;;;;;11.80;3.10;;;10.30;99.90;;;;;;7373470;19;20542;-73
2023/12/28 04:39:28;;;;;;;10.55;2.97;;;10.40;99.90;;;;;;7376032;19;20026;-66
2023/12/28 04:41:54;;;;;;;9.63;3.30;;;10.40;99.90;;;;;;7371453;19;20193;-66
2023/12/28 04:44:21;;;;;;;14.13;3.17;;;10.50;99.90;;;;;;7371265;19;20063;-66
2023/12/28 04:46:47;;;;;;;9.98;2.92;;;10.50;99.90;;;;;;7374173;19;20018;-66
2023/12/28 04:49:13;;;;;;;12.52;2.72;;;10.50;99.90;;;;;;7368389;19;20090;-66
2023/12/28 04:51:43;;;;;;;12.60;3.35;;;10.50;99.90;;;;;;7378232;19;20033;-72
2023/12/28 04:54:10;;;;;;;11.18;3.33;;;10.60;99.90;;;;;;7371960;19;20018;-72
2023/12/28 04:56:36;;;;;;;10.27;2.92;;;10.70;99.90;;;;;;7372987;19;20018;-66
2023/12/28 04:59:02;;;;;;;12.60;2.88;;;10.70;99.90;;;;;;7371506;19;20015;-66
2023/12/28 05:01:31;;;;;;;16.27;3.83;;;10.70;99.90;;;;;;7375535;19;20018;-66
2023/12/28 05:03:57;;;;;;;15.10;3.00;;;10.80;99.90;;;;;;7373334;19;20102;-66
2023/12/28 05:06:23;;;;;;;13.40;3.25;;;10.80;99.90;;;;;;7372496;19;20046;-66
2023/12/28 05:08:49;;;;;;;11.25;3.10;;;10.90;99.90;;;;;;7372104;19;20019;-66
2023/12/28 05:11:15;;;;;;;12.13;3.10;;;10.90;99.90;;;;;;7370257;19;20018;-66
2023/12/28 05:13:42;;;;;;;13.02;3.30;;;10.90;99.90;;;;;;7369667;19;20041;-72
2023/12/28 05:16:08;;;;;;;12.05;3.70;;;10.90;99.90;;;;;;7371241;19;20025;-66
2023/12/28 05:18:34;;;;;;;9.00;2.80;;;10.90;99.90;;;;;;7373942;19;20296;-66
2023/12/28 05:21:20;;;;;;;10.35;3.25;;;10.90;99.90;;;;;;7372586;19;20540;-66
2023/12/28 05:23:47;;;;;;;13.25;2.95;;;10.90;99.90;;;;;;7373869;19;20010;-66
2023/12/28 05:26:13;;;;;;;14.45;4.20;;;10.90;99.90;;;;;;7368002;19;20110;-66
2023/12/28 05:28:39;;;;;;;14.40;2.88;;;11.00;99.90;;;;;;7371314;19;20018;-67
2023/12/28 05:31:05;;;;;;;17.15;3.35;;;11.00;99.90;;;;;;7369416;19;20018;-66
2023/12/28 05:33:32;;;;;;;14.40;4.10;;;11.00;99.90;;;;;;7369725;19;20026;-66
2023/12/28 05:35:59;;;;;;;13.95;3.50;;;11.00;99.90;;;;;;7372775;19;20094;-66
2023/12/28 05:38:25;;;;;;;14.15;3.65;;;11.00;99.90;;;;;;7368739;19;20018;-66
2023/12/28 05:40:51;;;;;;;14.00;3.08;;;11.00;99.90;;;;;;7371142;19;20487;-66
2023/12/28 05:43:17;;;;;;;11.35;3.10;;;11.10;99.90;;;;;;7372171;19;20493;-66
2023/12/28 05:45:43;;;;;;;9.23;2.97;;;11.00;99.90;;;;;;7369683;19;20571;-67
2023/12/28 05:48:09;;;;;;;15.52;3.38;;;11.10;99.90;;;;;;7370904;19;20018;-72
2023/12/28 05:50:35;;;;;;;14.35;3.20;;;11.10;99.90;;;;;;7366990;19;20087;-72
2023/12/28 05:53:02;;;;;;;10.65;2.92;;;11.10;99.90;;;;;;7373575;19;20021;-73
2023/12/28 05:55:28;;;;;;;12.90;3.33;;;11.10;99.90;;;;;;7371097;19;20017;-72
2023/12/28 05:57:54;;;;;;;14.18;3.92;;;11.10;99.90;;;;;;7369851;19;20019;-72
2023/12/28 06:00:21;;;;;;;12.57;3.72;;;11.10;99.90;;;;;;7364538;19;20090;-73
2023/12/28 06:02:51;;;;;;;14.32;3.22;;;11.00;99.90;;;;;;7370985;19;20813;-72
2023/12/28 06:05:20;;;;;;;14.45;3.35;;;11.10;99.90;;;;;;7370688;19;20082;-73
2023/12/28 06:07:46;;;;;;;10.70;2.78;;;11.10;99.90;;;;;;7370587;19;20014;-73
2023/12/28 06:10:12;;;;;;;17.48;3.38;;;11.10;99.90;;;;;;7372496;19;20635;-72
2023/12/28 06:12:38;;;;;;;9.38;2.53;;;11.10;99.90;;;;;;7370160;19;21040;-66
2023/12/28 06:15:05;;;;;;;14.45;3.20;;;11.00;99.90;;;;;;7369952;19;20023;-66
2023/12/28 06:17:31;;;;;;;14.23;4.22;;;11.00;99.90;;;;;;7369426;19;20023;-66
2023/12/28 06:19:57;;;;;;;11.52;3.08;;;11.10;99.90;;;;;;7372132;19;20030;-72
2023/12/28 06:22:27;;;;;;;17.45;3.25;;;11.00;99.90;;;;;;7368643;19;20031;-73
2023/12/28 06:25:13;;;;;;;12.30;3.95;;;11.00;99.90;;;;;;7367187;19;20026;-72
2023/12/28 06:27:39;;;;;;;13.52;3.60;;;11.10;99.90;;;;;;7369865;19;20470;-73
2023/12/28 06:30:06;;;;;;;12.30;3.45;;;11.10;99.90;;;;;;7369348;19;20086;-66
2023/12/28 06:32:32;;;;;;;15.70;3.10;;;11.10;99.90;;;;;;7370281;19;20517;-72
2023/12/28 06:34:59;;;;;;;16.15;2.88;;;11.20;99.90;;;;;;7369778;19;20048;-72
2023/12/28 06:37:25;;;;;;;13.60;3.28;;;11.10;99.90;;;;;;7368387;19;20099;-72
2023/12/28 06:39:52;;;;;;;18.45;3.20;;;11.10;99.90;;;;;;7369526;19;20062;-66
2023/12/28 06:42:18;;;;;;;17.65;3.80;;;11.10;99.90;;;;;;7368596;19;20022;-66
2023/12/28 06:45:05;;;;;;;10.98;3.45;;;11.10;99.90;;;;;;7367204;19;20021;-72
2023/12/28 06:47:34;;;;;;;13.38;3.17;;;11.10;99.90;;;;;;7370646;19;20399;-66
2023/12/28 06:50:01;;;;;;;11.77;3.13;;;11.10;99.90;;;;;;7370114;19;20094;-70
2023/12/28 06:52:27;;;;;;;16.75;3.33;;;11.00;99.90;;;;;;7368733;19;20038;-71
2023/12/28 06:54:53;;;;;;;11.68;3.47;;;11.00;99.90;;;;;;7372132;19;20022;-72
2023/12/28 06:57:19;;;;;;;17.75;3.28;;;11.10;99.90;;;;;;7371264;19;20021;-66
2023/12/28 06:59:46;;;;;;;16.40;3.67;;;11.10;99.90;;;;;;7374209;19;20019;-72
2023/12/28 07:02:12;;;;;;;15.30;3.22;;;11.10;99.90;;;;;;7368438;19;20086;-72
2023/12/28 07:04:38;;;;;;;17.00;3.22;;;11.20;99.90;;;;;;7372903;19;20030;-72
2023/12/28 07:07:05;;;;;;;20.63;3.45;;;11.20;99.90;;;;;;7376358;19;20015;-73
2023/12/28 07:09:31;;;;;;;19.80;4.47;;;11.10;99.90;;;;;;7378651;19;20042;-71
2023/12/28 07:11:57;;;;;;;14.93;3.25;;;11.20;99.90;;;;;;7379313;19;20838;-72
2023/12/28 07:14:23;;;;;;;11.98;3.40;;;11.20;99.90;;;;;;7376035;19;20098;-72
2023/12/28 07:16:49;;;;;;;13.90;3.90;;;11.20;99.90;;;;;;7374734;19;20666;-66
2023/12/28 07:19:16;;;;;;;20.88;3.30;;;11.30;99.90;;;;;;7370161;19;20061;-66
2023/12/28 07:21:42;;;;;;;16.35;3.88;;;11.30;99.90;;;;;;7373512;19;20106;-65
2023/12/28 07:24:08;;;;;;;20.20;4.22;;;11.30;99.90;;;;;;7370398;19;20022;-66
2023/12/28 07:26:34;;;;;;;12.52;3.22;;;11.30;99.90;;;;;;7375654;19;20029;-72
2023/12/28 07:29:01;;;;;;;18.85;4.13;;;11.30;99.90;;;;;;7377314;19;20058;-67
2023/12/28 07:31:28;;;;;;;21.33;4.43;;;11.40;99.90;;;;;;7375151;19;20022;-66
2023/12/28 07:33:54;;;;;;;20.35;4.38;;;11.30;99.90;;;;;;7373684;19;20023;-66
2023/12/28 07:36:22;;;;;;;17.50;4.38;;;11.40;99.90;;;;;;7376038;19;20022;-66
2023/12/28 07:38:48;;;;;;;19.65;4.45;;;11.40;99.90;;;;;;7375736;19;20055;-66
2023/12/28 07:41:15;;;;;;;20.23;4.45;;;11.40;99.90;;;;;;7376461;19;20022;-63
2023/12/28 07:43:43;;;;;;;17.17;3.65;;;11.40;99.90;;;;;;7377178;19;20014;-72
2023/12/28 07:46:09;;;;;;;17.92;3.92;;;11.40;99.90;;;;;;7374907;19;20082;-72
2023/12/28 07:48:35;;;;;;;15.80;3.92;;;11.40;99.90;;;;;;7374809;19;20018;-72
2023/12/28 07:51:05;;;;;;;19.48;4.85;;;11.40;99.90;;;;;;7375910;19;20710;-72
2023/12/28 07:53:32;;;;;;;16.98;3.85;;;11.40;99.90;;;;;;7370784;19;20023;-72
2023/12/28 07:55:58;;;;;;;18.63;4.32;;;11.40;99.90;;;;;;7376723;19;20474;-72
2023/12/28 07:58:24;;;;;;;19.90;4.35;;;11.50;99.90;;;;;;7376777;19;20026;-72
2023/12/28 08:00:51;;;;;;;20.60;3.85;;;11.50;99.90;;;;;;7374253;19;20018;-74
2023/12/28 08:03:17;;;;;;;17.30;4.75;;;11.40;99.90;;;;;;7372502;19;20014;-72
2023/12/28 08:05:44;;;;;;;20.52;3.90;;;11.40;99.90;;;;;;7374469;19;20014;-65
2023/12/28 08:08:10;;;;;;;20.48;5.03;;;11.30;99.90;;;;;;7374532;19;20022;-72
2023/12/28 08:10:36;;;;;;;19.83;4.47;;;11.40;99.90;;;;;;7376206;19;20095;-72
2023/12/28 08:13:03;;;;;;;21.15;5.10;;;11.30;99.90;;;;;;7377620;19;20066;-72
2023/12/28 08:15:29;;;;;;;22.48;4.03;;;11.40;99.90;;;;;;7374720;19;20652;-66
2023/12/28 08:17:55;;;;;;;15.60;4.28;;;11.30;99.90;;;;;;7371931;19;20019;-63
2023/12/28 08:20:22;;;;;;;23.13;4.18;;;11.30;99.90;;;;;;7374280;19;20085;-73
2023/12/28 08:22:48;;;;;;;18.33;5.45;;;11.40;99.90;;;;;;7376293;19;20018;-73
2023/12/28 08:25:34;;;;;;;18.45;4.75;;;11.40;99.90;;;;;;7372224;19;20018;-73
2023/12/28 08:28:00;;;;;;;20.63;4.22;;;11.40;99.90;;;;;;7375498;19;20018;-73
2023/12/28 08:30:27;;;;;;;20.67;4.68;;;11.30;99.90;;;;;;7371028;19;20033;-72
2023/12/28 08:32:53;;;;;;;21.90;4.35;;;11.40;99.90;;;;;;7370234;19;20023;-73
2023/12/28 08:35:20;;;;;;;17.08;4.60;;;11.40;99.90;;;;;;7370730;19;20018;-73
2023/12/28 08:37:47;;;;;;;22.88;4.35;;;11.50;99.90;;;;;;7372102;19;20077;-66
2023/12/28 08:40:14;;;;;;;24.25;5.80;;;11.40;99.90;;;;;;7373013;19;20029;-66
2023/12/28 08:42:40;;;;;;;23.55;4.90;;;11.40;99.90;;;;;;7374610;19;20029;-66
2023/12/28 08:45:07;;;;;;;21.23;5.30;;;11.40;99.90;;;;;;7373317;19;20019;-66
2023/12/28 08:47:33;;;;;;;21.95;4.53;;;11.40;99.90;;;;;;7372783;19;20025;-73
2023/12/28 08:49:59;;;;;;;24.60;5.07;;;11.40;99.90;;;;;;7374348;19;20063;-73
2023/12/28 08:52:26;;;;;;;21.05;5.13;;;11.40;99.90;;;;;;7372952;19;20559;-73
2023/12/28 08:54:52;;;;;;;20.60;5.28;;;11.50;99.90;;;;;;7377885;19;20090;-74
2023/12/28 08:57:19;;;;;;;25.10;4.70;;;11.50;99.90;;;;;;7370984;19;20029;-73
2023/12/28 08:59:45;;;;;;;20.27;3.97;;;11.40;99.90;;;;;;7373881;19;20113;-73
2023/12/28 09:02:12;;;;;;;21.67;4.55;;;11.40;99.90;;;;;;7370375;19;20722;-66
2023/12/28 09:04:38;;;;;;;23.42;4.93;;;11.40;99.90;;;;;;7374286;19;20421;-66
2023/12/28 09:07:05;;;;;;;19.02;5.22;;;11.40;99.90;;;;;;7371852;19;20026;-66
2023/12/28 09:09:31;;;;;;;20.83;4.75;;;11.50;99.90;;;;;;7375576;19;20070;-74
2023/12/28 09:11:57;;;;;;;22.20;5.93;;;11.40;99.90;;;;;;7372597;19;20599;-74
2023/12/28 09:14:23;;;;;;;21.63;4.63;;;11.40;99.90;;;;;;7372454;19;20043;-74
2023/12/28 09:16:51;;;;;;;25.20;4.72;;;11.50;99.90;;;;;;7371890;19;20095;-66
2023/12/28 09:19:17;;;;;;;22.13;4.82;;;11.40;99.90;;;;;;7375191;19;20018;-66
2023/12/28 09:21:43;;;;;;;21.02;4.78;;;11.50;99.90;;;;;;7377281;19;20022;-66
2023/12/28 09:24:09;;;;;;;18.75;5.05;;;11.50;99.90;;;;;;7369691;19;20768;-66
2023/12/28 09:26:36;;;;;;;21.40;4.22;;;11.50;99.90;;;;;;7369979;19;21247;-66
2023/12/28 09:29:02;;;;;;;17.63;4.38;;;11.50;99.90;;;;;;7368788;19;20019;-66
2023/12/28 09:31:32;;;;;;;18.88;3.53;;;11.50;99.90;;;;;;7364567;19;20021;-74
2023/12/28 09:33:59;;;;;;;19.33;4.05;;;11.50;99.90;;;;;;7365218;19;20022;-74
2023/12/28 09:36:29;;;;;;;23.75;4.50;;;11.50;99.90;;;;;;7366510;19;20026;-73
2023/12/28 09:38:56;;;;;;;19.45;4.35;;;11.50;99.90;;;;;;7368301;19;20014;-72
2023/12/28 09:41:26;;;;;;;16.05;4.32;;;11.50;99.90;;;;;;7372227;19;20019;-74
2023/12/28 09:44:05;;;;;;;19.67;4.75;;;11.60;99.90;;;;;;7367897;19;20039;-74
2023/12/28 09:46:32;;;;;;;22.67;4.95;;;11.60;99.90;;;;;;7369021;19;20022;-74
2023/12/28 09:48:59;;;;;;;22.70;5.45;;;11.60;99.90;;;;;;7369290;19;20469;-74
2023/12/28 09:51:26;;;;;;;22.88;4.88;;;11.60;99.90;;;;;;7364705;19;20022;-74
2023/12/28 09:53:52;;;;;;;25.08;4.80;;;11.70;99.90;;;;;;7370225;19;20090;-66
2023/12/28 09:56:19;;;;;;;21.00;5.47;;;11.70;99.90;;;;;;7371282;19;20033;-66
2023/12/28 09:58:49;;;;;;;22.67;5.05;;;11.70;99.90;;;;;;7367538;19;20022;-66
2023/12/28 10:01:16;;;;;;;20.92;4.40;;;11.70;99.90;;;;;;7370778;19;20447;-65
2023/12/28 10:04:03;;;;;;;21.63;4.72;;;11.70;99.90;;;;;;7366723;19;20070;-66
2023/12/28 10:06:30;;;;;;;21.25;4.20;;;11.70;99.90;;;;;;7366678;19;20019;-66
2023/12/28 10:08:56;;;;;;;19.05;3.78;;;11.70;99.90;;;;;;7369950;19;20020;-66
2023/12/28 10:11:23;;;;;;;21.30;3.90;;;11.60;99.90;;;;;;7366927;19;20086;-66
2023/12/28 10:13:50;;;;;;;20.92;4.00;;;11.70;99.90;;;;;;7367690;19;20482;-66
2023/12/28 10:16:40;;;;;;;13.82;4.00;;;11.60;99.90;;;;;;7363364;19;20029;-74
2023/12/28 10:19:07;;;;;;;19.70;4.32;;;11.70;99.90;;;;;;7369423;19;20030;-74
2023/12/28 10:21:34;;;;;;;19.70;4.45;;;11.70;99.90;;;;;;7366174;19;20026;-74
2023/12/28 10:24:02;;;;;;;23.15;4.85;;;11.70;99.90;;;;;;7372960;19;20032;-66
2023/12/28 10:26:28;;;;;;;24.35;4.68;;;11.70;99.90;;;;;;7361517;19;20019;-66
2023/12/28 10:29:05;;;;;;;19.60;4.38;;;11.70;99.90;;;;;;7362262;19;20570;-66
2023/12/28 10:31:51;;;;;;;17.77;3.78;;;11.60;99.90;;;;;;7363456;19;20010;-66
2023/12/28 10:34:18;;;;;;;17.83;4.25;;;11.70;99.90;;;;;;7366038;19;20518;-66
2023/12/28 10:36:47;;;;;;;16.77;4.40;;;11.70;99.90;;;;;;7366214;19;20451;-65
2023/12/28 10:39:19;;;;;;;19.08;4.30;;;11.70;99.90;;;;;;7364769;19;20478;-63
2023/12/28 10:41:49;;;;;;;;;;;11.70;99.90;;;;;;7374124;19;20487;-73
2023/12/28 10:44:20;;;;;;;19.75;4.30;;;11.70;99.90;;;;;;7369406;19;19922;-65
2023/12/28 10:46:47;;;;;;;;;;;11.70;99.90;;;;;;7376166;19;20015;-65
2023/12/28 10:49:16;;;;;;;14.65;3.55;;;11.70;99.90;;;;;;7374144;19;19927;-65
2023/12/28 10:51:45;;;;;;;16.30;4.18;;;11.70;99.90;;;;;;7374550;19;20018;-65
2023/12/28 10:54:39;;;;;;;16.55;4.40;;;11.70;99.90;;;;;;7377149;19;20025;-65
2023/12/28 10:57:12;;;;;;;19.35;4.47;;;11.60;99.90;;;;;;7373124;19;20031;-65
2023/12/28 11:00:02;;;;;;;25.85;5.10;;;11.70;99.90;;;;;;7377651;19;20019;-74
2023/12/28 11:02:41;;;;;;;15.90;4.00;;;11.70;99.90;;;;;;7374409;19;20019;-75
2023/12/28 11:05:29;;;;;;;17.05;4.30;;;11.70;99.90;;;;;;7370829;19;20358;-74
2023/12/28 11:07:58;;;;;;;25.40;4.85;;;11.70;99.90;;;;;;7376534;19;20025;-73
2023/12/28 11:10:24;;;;;;;19.15;4.32;;;11.60;99.90;;;;;;7376498;19;20019;-75
2023/12/28 11:12:53;;;;;;;20.63;5.20;;;11.60;99.90;;;;;;7378727;19;20022;-65
2023/12/28 11:15:20;;;;;;;24.02;4.55;;;11.60;99.90;;;;;;7373558;19;20019;-65
2023/12/28 11:17:48;;;;;;;19.40;4.13;;;11.60;99.90;;;;;;7371403;19;20010;-66
2023/12/28 11:20:18;;;;;;;18.83;4.63;;;11.60;99.90;;;;;;7371958;19;20022;-65
2023/12/28 11:22:46;;;;;;;24.05;5.10;;;11.60;99.90;;;;;;7373344;19;20765;-65
2023/12/28 11:25:19;;;;;;;23.25;4.53;;;11.60;99.90;;;;;;7373256;19;20018;-65
2023/12/28 11:28:14;;;;;;;14.40;4.32;;;11.60;99.90;;;;;;7371836;19;20022;-65
2023/12/28 11:30:42;;;;;;;20.10;4.72;;;11.60;99.90;;;;;;7371427;19;20039;-67
2023/12/28 11:33:31;;;;;;;18.17;3.70;;;11.70;99.90;;;;;;7371880;19;20753;-65
2023/12/28 11:35:58;;;;;;;20.90;4.07;;;11.70;99.90;;;;;;7377567;19;20036;-66
2023/12/28 11:38:25;;;;;;;22.48;4.47;;;11.70;99.90;;;;;;7374634;19;20494;-66
2023/12/28 11:40:54;;;;;;;20.05;4.07;;;11.70;99.90;;;;;;7376753;19;20022;-66
2023/12/28 11:43:40;;;;;;;21.27;3.75;;;11.70;99.90;;;;;;7373323;19;20038;-65
2023/12/28 11:46:08;;;;;;;19.05;4.60;;;11.80;99.90;;;;;;7371397;19;20037;-66
2023/12/28 11:48:34;;;;;;;17.67;3.72;;;11.70;99.90;;;;;;7373692;19;20094;-64
2023/12/28 11:51:01;;;;;;;17.45;3.65;;;11.70;99.90;;;;;;7371916;19;20047;-65
2023/12/28 11:53:27;;;;;;;18.80;4.15;;;11.80;99.90;;;;;;7372290;19;20019;-65
2023/12/28 11:56:03;;;;;;;20.90;4.10;;;11.70;99.90;;;;;;7375841;19;20041;-65
2023/12/28 11:58:30;;;;;;;22.27;4.13;;;11.70;99.90;;;;;;7369740;19;20033;-65
2023/12/28 12:00:57;;;;;;;19.42;4.22;;;11.70;99.90;;;;;;7374925;19;20015;-66
2023/12/28 12:03:26;;;;;;;32.78;5.05;;;11.70;99.90;;;;;;7372141;19;20046;-64
2023/12/28 12:05:54;;;;;;;18.85;5.40;;;11.70;99.90;;;;;;7375591;19;20022;-65
2023/12/28 12:08:40;;;;;;;19.95;4.30;;;11.70;99.90;;;;;;7370529;19;20022;-66
2023/12/28 12:11:07;;;;;;;20.65;4.95;;;11.70;99.90;;;;;;7373406;19;20018;-65
2023/12/28 12:13:34;;;;;;;22.13;4.20;;;11.70;99.90;;;;;;7372682;19;20026;-66
2023/12/28 12:16:05;;;;;;;23.42;4.85;;;11.70;99.90;;;;;;7373795;19;20014;-65
2023/12/28 12:18:35;;;;;;;20.13;5.55;;;11.70;99.90;;;;;;7370781;19;20570;-65
2023/12/28 12:21:02;;;;;;;21.88;4.63;;;11.70;99.90;;;;;;7373928;19;20027;-65
2023/12/28 12:23:29;;;;;;;24.33;5.43;;;11.80;99.90;;;;;;7372664;19;20025;-65
2023/12/28 12:25:55;;;;;;;22.52;4.80;;;11.80;99.90;;;;;;7371594;19;20043;-65
2023/12/28 12:28:22;;;;;;;22.15;4.95;;;11.80;99.90;;;;;;7371128;19;20018;-65
2023/12/28 12:31:01;;;;;;;20.95;5.60;;;11.80;99.90;;;;;;7371240;19;20365;-65
2023/12/28 12:33:27;;;;;;;20.60;5.10;;;11.70;99.90;;;;;;7368946;19;20364;-73
2023/12/28 12:35:54;;;;;;;20.50;5.65;;;11.80;99.90;;;;;;7371215;19;20023;-74
2023/12/28 12:38:20;;;;;;;26.42;6.60;;;11.80;99.90;;;;;;7368650;19;20018;-74
2023/12/28 12:40:46;;;;;;;26.23;5.93;;;11.80;99.90;;;;;;7372207;19;20018;-73
2023/12/28 12:43:14;;;;;;;27.83;5.80;;;11.80;99.90;;;;;;7372909;19;20026;-65
2023/12/28 12:45:40;;;;;;;18.35;4.55;;;11.80;99.90;;;;;;7373354;19;20026;-66
2023/12/28 12:48:06;;;;;;;21.50;4.57;;;11.80;99.90;;;;;;7371107;19;20018;-65